createdAt,value
2019-03-09T00:00:10.142Z,6.255188
2019-03-09T00:01:19.671Z,6.27533
2019-03-09T00:02:29.182Z,6.295471
2019-03-09T00:03:38.696Z,6.305542
2019-03-09T00:04:48.201Z,6.305542
2019-03-09T00:05:57.729Z,6.305542
2019-03-09T00:07:07.250Z,6.305542
2019-03-09T00:08:16.759Z,6.325684
2019-03-09T00:09:26.286Z,6.305542
2019-03-09T00:10:35.791Z,6.345825
2019-03-09T00:11:45.307Z,6.305542
2019-03-09T00:12:54.828Z,6.355896
2019-03-09T00:14:04.340Z,6.345825
2019-03-09T00:15:13.839Z,6.355896
2019-03-09T00:16:23.358Z,6.355896
2019-03-09T00:17:32.855Z,6.40625
2019-03-09T00:18:42.365Z,6.416321
2019-03-09T00:19:51.879Z,6.416321
2019-03-09T00:21:01.390Z,6.416321
2019-03-09T00:22:10.916Z,6.446533
2019-03-09T00:23:20.424Z,6.476746
2019-03-09T00:24:29.938Z,6.486816
2019-03-09T00:25:39.451Z,6.476746
2019-03-09T00:26:48.983Z,6.506958
2019-03-09T00:27:58.493Z,6.476746
2019-03-09T00:29:08.009Z,6.456604
2019-03-09T00:30:17.514Z,6.476746
2019-03-09T00:31:27.017Z,6.446533
2019-03-09T00:32:36.534Z,6.416321
2019-03-09T00:33:46.044Z,6.386108
2019-03-09T00:34:55.552Z,6.355896
2019-03-09T00:36:05.060Z,6.345825
2019-03-09T00:37:14.585Z,6.325684
2019-03-09T00:38:24.095Z,6.345825
2019-03-09T00:39:33.617Z,6.345825
2019-03-09T00:40:43.216Z,6.376038
2019-03-09T00:41:52.820Z,6.386108
2019-03-09T00:43:02.483Z,6.376038
2019-03-09T00:44:12.042Z,6.345825
2019-03-09T00:45:21.607Z,6.345825
2019-03-09T00:46:31.161Z,6.376038
2019-03-09T00:47:40.728Z,6.355896
2019-03-09T00:48:50.235Z,6.376038
2019-03-09T00:49:59.745Z,6.355896
2019-03-09T00:51:09.330Z,6.345825
2019-03-09T00:52:18.944Z,6.305542
2019-03-09T00:53:28.533Z,6.265259
2019-03-09T00:54:38.100Z,6.27533
2019-03-09T00:55:47.662Z,6.235046
2019-03-09T00:56:57.246Z,6.224976
2019-03-09T00:58:06.840Z,6.224976
2019-03-09T00:59:16.423Z,6.204834
2019-03-09T01:00:26.025Z,6.174622
2019-03-09T01:01:35.616Z,6.164551
2019-03-09T01:02:45.149Z,6.094055
2019-03-09T01:03:54.650Z,6.073914
2019-03-09T01:05:04.160Z,6.013489
2019-03-09T01:06:13.668Z,5.993347
2019-03-09T01:07:23.193Z,5.993347
2019-03-09T01:08:32.714Z,5.993347
2019-03-09T01:09:42.325Z,6.02356
2019-03-09T01:10:51.943Z,6.02356
2019-03-09T01:12:01.550Z,5.983276
2019-03-09T01:13:11.165Z,5.973206
2019-03-09T01:14:20.743Z,5.942993
2019-03-09T01:15:30.261Z,5.912781
2019-03-09T01:16:39.773Z,5.912781
2019-03-09T01:17:49.303Z,5.892639
2019-03-09T01:18:58.817Z,5.862427
2019-03-09T01:20:08.325Z,5.862427
2019-03-09T01:21:17.831Z,5.842285
2019-03-09T01:22:27.365Z,5.822144
2019-03-09T01:23:36.868Z,5.822144
2019-03-09T01:24:46.373Z,5.802002
2019-03-09T01:25:55.887Z,5.751648
2019-03-09T01:27:05.395Z,5.761719
2019-03-09T01:28:14.926Z,5.721436
2019-03-09T01:29:24.430Z,5.711365
2019-03-09T01:30:33.940Z,5.65094
2019-03-09T01:31:43.450Z,5.590515
2019-03-09T01:32:52.972Z,5.499878
2019-03-09T01:34:02.477Z,5.479736
2019-03-09T01:35:11.983Z,5.469666
2019-03-09T01:36:21.487Z,5.439453
2019-03-09T01:37:31.011Z,5.429382
2019-03-09T01:38:40.517Z,5.439453
2019-03-09T01:39:50.020Z,5.389099
2019-03-09T01:40:59.534Z,5.409241
2019-03-09T01:42:09.047Z,5.409241
2019-03-09T01:43:18.565Z,5.389099
2019-03-09T01:44:28.076Z,5.409241
2019-03-09T01:45:37.578Z,5.389099
2019-03-09T01:46:47.084Z,5.409241
2019-03-09T01:47:56.606Z,5.389099
2019-03-09T01:49:06.108Z,5.439453
2019-03-09T01:50:15.623Z,5.479736
2019-03-09T01:51:25.137Z,5.540161
2019-03-09T01:52:34.668Z,5.53009
2019-03-09T01:53:44.171Z,5.540161
2019-03-09T01:54:53.677Z,5.590515
2019-03-09T01:56:03.170Z,5.590515
2019-03-09T01:57:12.674Z,5.570374
2019-03-09T01:58:22.201Z,5.540161
2019-03-09T01:59:31.710Z,5.570374
2019-03-09T02:00:41.219Z,5.570374
2019-03-09T02:01:50.731Z,5.620728
2019-03-09T02:03:00.260Z,5.610657
2019-03-09T02:04:09.754Z,5.640869
2019-03-09T02:05:19.275Z,5.620728
2019-03-09T02:06:28.782Z,5.560303
2019-03-09T02:07:38.282Z,5.540161
2019-03-09T02:08:47.855Z,5.560303
2019-03-09T02:09:57.375Z,5.620728
2019-03-09T02:11:06.890Z,5.570374
2019-03-09T02:12:16.398Z,5.570374
2019-03-09T02:13:25.912Z,5.570374
2019-03-09T02:14:35.422Z,5.590515
2019-03-09T02:15:44.938Z,5.610657
2019-03-09T02:16:54.449Z,5.620728
2019-03-09T02:18:03.970Z,5.65094
2019-03-09T02:19:13.481Z,5.640869
2019-03-09T02:20:22.990Z,5.640869
2019-03-09T02:21:32.495Z,5.661011
2019-03-09T02:22:42.005Z,5.691223
2019-03-09T02:23:51.547Z,5.711365
2019-03-09T02:25:01.049Z,5.751648
2019-03-09T02:26:10.580Z,5.751648
2019-03-09T02:27:20.079Z,5.761719
2019-03-09T02:28:29.600Z,5.832214
2019-03-09T02:29:39.117Z,5.842285
2019-03-09T02:30:48.631Z,5.862427
2019-03-09T02:31:58.136Z,5.862427
2019-03-09T02:33:07.656Z,5.842285
2019-03-09T02:34:17.164Z,5.862427
2019-03-09T02:35:26.674Z,5.832214
2019-03-09T02:36:36.189Z,5.822144
2019-03-09T02:37:45.710Z,5.791931
2019-03-09T02:38:55.218Z,5.802002
2019-03-09T02:40:04.728Z,5.791931
2019-03-09T02:41:14.231Z,5.822144
2019-03-09T02:42:23.741Z,5.842285
2019-03-09T02:43:33.244Z,5.842285
2019-03-09T02:44:42.756Z,5.832214
2019-03-09T02:45:52.269Z,5.731506
2019-03-09T02:47:01.778Z,5.640869
2019-03-09T02:48:11.302Z,5.590515
2019-03-09T02:49:20.800Z,5.560303
2019-03-09T02:50:30.310Z,5.53009
2019-03-09T02:51:39.853Z,5.661011
2019-03-09T02:52:49.370Z,5.802002
2019-03-09T02:53:58.887Z,5.932922
2019-03-09T02:55:08.393Z,6.02356
2019-03-09T02:56:17.893Z,6.073914
2019-03-09T02:57:27.403Z,6.094055
2019-03-09T02:58:36.955Z,6.094055
2019-03-09T02:59:46.474Z,6.114197
2019-03-09T03:00:56.003Z,6.124268
2019-03-09T03:02:05.507Z,6.194763
2019-03-09T03:03:15.038Z,6.235046
2019-03-09T03:04:24.628Z,6.27533
2019-03-09T03:05:34.210Z,6.27533
2019-03-09T03:06:43.735Z,6.305542
2019-03-09T03:07:53.248Z,6.305542
2019-03-09T03:09:02.763Z,6.305542
2019-03-09T03:10:12.265Z,6.27533
2019-03-09T03:11:21.786Z,6.235046
2019-03-09T03:12:31.298Z,6.174622
2019-03-09T03:13:40.834Z,6.164551
2019-03-09T03:14:50.332Z,6.114197
2019-03-09T03:15:59.854Z,6.124268
2019-03-09T03:17:09.410Z,6.124268
2019-03-09T03:18:18.912Z,6.124268
2019-03-09T03:19:28.429Z,6.094055
2019-03-09T03:20:37.940Z,6.083984
2019-03-09T03:21:47.520Z,6.114197
2019-03-09T03:22:57.024Z,6.164551
2019-03-09T03:24:06.543Z,6.144409
2019-03-09T03:25:16.063Z,6.124268
2019-03-09T03:26:25.569Z,6.124268
2019-03-09T03:27:35.089Z,6.164551
2019-03-09T03:28:44.609Z,6.094055
2019-03-09T03:29:54.127Z,6.073914
2019-03-09T03:31:03.634Z,6.02356
2019-03-09T03:32:13.130Z,5.973206
2019-03-09T03:33:22.641Z,5.912781
2019-03-09T03:34:32.160Z,5.932922
2019-03-09T03:35:41.679Z,5.90271
2019-03-09T03:36:51.179Z,5.872498
2019-03-09T03:38:00.694Z,5.862427
2019-03-09T03:39:10.211Z,5.842285
2019-03-09T03:40:19.714Z,5.822144
2019-03-09T03:41:29.214Z,5.872498
2019-03-09T03:42:38.714Z,5.942993
2019-03-09T03:43:48.213Z,5.993347
2019-03-09T03:44:57.754Z,5.993347
2019-03-09T03:46:07.261Z,6.043701
2019-03-09T03:47:16.790Z,6.073914
2019-03-09T03:48:26.263Z,6.094055
2019-03-09T03:49:35.791Z,6.124268
2019-03-09T03:50:45.299Z,6.124268
2019-03-09T03:51:54.797Z,6.083984
2019-03-09T03:53:04.338Z,6.043701
2019-03-09T03:54:14.847Z,6.013489
2019-03-09T03:55:24.350Z,6.013489
2019-03-09T03:56:33.851Z,6.043701
2019-03-09T03:57:44.346Z,6.073914
2019-03-09T03:58:53.874Z,6.094055
2019-03-09T04:00:03.401Z,6.124268
2019-03-09T04:01:12.917Z,6.124268
2019-03-09T04:02:22.414Z,6.124268
2019-03-09T04:03:31.917Z,6.124268
2019-03-09T04:04:41.456Z,6.144409
2019-03-09T04:05:50.963Z,6.204834
2019-03-09T04:07:00.530Z,6.40625
2019-03-09T04:08:10.042Z,6.446533
2019-03-09T04:09:19.602Z,6.416321
2019-03-09T04:10:29.105Z,6.456604
2019-03-09T04:11:38.616Z,6.557312
2019-03-09T04:12:48.127Z,6.597595
2019-03-09T04:13:57.633Z,6.617737
2019-03-09T04:15:07.159Z,6.597595
2019-03-09T04:16:17.411Z,6.688232
2019-03-09T04:17:26.916Z,6.698303
2019-03-09T04:18:36.422Z,6.698303
2019-03-09T04:19:45.956Z,6.65802
2019-03-09T04:20:55.460Z,6.637878
2019-03-09T04:22:04.962Z,6.627808
2019-03-09T04:23:14.467Z,6.627808
2019-03-09T04:24:23.979Z,6.768799
2019-03-09T04:25:33.523Z,6.77887
2019-03-09T04:26:43.043Z,6.819153
2019-03-09T04:27:52.537Z,6.839294
2019-03-09T04:29:02.050Z,6.809082
2019-03-09T04:30:11.567Z,6.849365
2019-03-09T04:31:21.078Z,6.819153
2019-03-09T04:32:30.583Z,6.839294
2019-03-09T04:33:40.157Z,6.819153
2019-03-09T04:34:49.669Z,6.809082
2019-03-09T04:35:59.169Z,6.768799
2019-03-09T04:37:08.693Z,6.748657
2019-03-09T04:38:18.206Z,6.768799
2019-03-09T04:39:27.718Z,6.738586
2019-03-09T04:40:37.233Z,6.718445
2019-03-09T04:41:46.748Z,6.78894
2019-03-09T04:42:56.258Z,6.849365
2019-03-09T04:44:05.766Z,6.839294
2019-03-09T04:45:15.288Z,6.78894
2019-03-09T04:46:24.804Z,6.77887
2019-03-09T04:47:34.320Z,6.78894
2019-03-09T04:48:43.825Z,6.768799
2019-03-09T04:49:53.353Z,6.809082
2019-03-09T04:51:02.890Z,6.849365
2019-03-09T04:52:12.391Z,6.839294
2019-03-09T04:53:21.898Z,6.819153
2019-03-09T04:54:31.406Z,6.809082
2019-03-09T04:55:40.922Z,6.809082
2019-03-09T04:56:50.426Z,6.819153
2019-03-09T04:57:59.936Z,6.819153
2019-03-09T04:59:09.442Z,6.78894
2019-03-09T05:00:18.972Z,6.809082
2019-03-09T05:01:28.491Z,6.819153
2019-03-09T05:02:37.994Z,6.819153
2019-03-09T05:03:47.495Z,6.809082
2019-03-09T05:04:58.826Z,6.819153
2019-03-09T05:06:06.503Z,6.819153
2019-03-09T05:07:16.012Z,6.809082
2019-03-09T05:08:25.512Z,6.849365
2019-03-09T05:09:35.019Z,6.879578
2019-03-09T05:10:44.538Z,6.879578
2019-03-09T05:11:54.049Z,6.819153
2019-03-09T05:13:03.565Z,6.78894
2019-03-09T05:14:13.070Z,6.77887
2019-03-09T05:15:22.589Z,6.768799
2019-03-09T05:16:32.101Z,6.809082
2019-03-09T05:17:41.602Z,6.78894
2019-03-09T05:18:51.107Z,6.809082
2019-03-09T05:20:00.667Z,6.77887
2019-03-09T05:21:10.126Z,6.77887
2019-03-09T05:22:19.648Z,6.768799
2019-03-09T05:23:29.177Z,6.78894
2019-03-09T05:24:38.686Z,6.849365
2019-03-09T05:25:48.212Z,6.879578
2019-03-09T05:26:57.729Z,6.879578
2019-03-09T05:28:07.227Z,6.919861
2019-03-09T05:29:16.737Z,6.919861
2019-03-09T05:30:26.247Z,6.929932
2019-03-09T05:31:35.757Z,6.919861
2019-03-09T05:32:45.274Z,6.889648
2019-03-09T05:33:54.778Z,6.879578
2019-03-09T05:35:04.292Z,6.879578
2019-03-09T05:36:13.796Z,6.889648
2019-03-09T05:37:23.316Z,6.879578
2019-03-09T05:38:32.827Z,6.889648
2019-03-09T05:39:42.337Z,6.919861
2019-03-09T05:40:51.844Z,6.919861
2019-03-09T05:42:01.350Z,6.950073
2019-03-09T05:43:10.885Z,6.960144
2019-03-09T05:44:20.390Z,6.950073
2019-03-09T05:45:29.908Z,6.919861
2019-03-09T05:46:39.429Z,6.950073
2019-03-09T05:47:48.935Z,6.950073
2019-03-09T05:48:58.446Z,6.950073
2019-03-09T05:50:07.969Z,6.970215
2019-03-09T05:51:17.479Z,7.050781
2019-03-09T05:52:27.001Z,7.131348
2019-03-09T05:53:36.508Z,7.131348
2019-03-09T05:54:46.015Z,7.141418
2019-03-09T05:55:55.542Z,7.131348
2019-03-09T05:57:05.096Z,7.141418
2019-03-09T05:58:14.572Z,7.141418
2019-03-09T05:59:24.088Z,7.151489
2019-03-09T06:00:33.595Z,7.181702
2019-03-09T06:01:43.109Z,7.181702
2019-03-09T06:02:52.631Z,7.242126
2019-03-09T06:04:02.133Z,7.252197
2019-03-09T06:05:11.661Z,7.29248
2019-03-09T06:06:21.179Z,7.252197
2019-03-09T06:07:30.708Z,7.312622
2019-03-09T06:08:40.217Z,7.332764
2019-03-09T06:09:49.721Z,7.433472
2019-03-09T06:10:59.283Z,7.483826
2019-03-09T06:12:08.804Z,7.503967
2019-03-09T06:13:18.309Z,7.514038
2019-03-09T06:14:27.810Z,7.514038
2019-03-09T06:15:37.335Z,7.53418
2019-03-09T06:16:46.841Z,7.54425
2019-03-09T06:17:56.359Z,7.53418
2019-03-09T06:19:06.852Z,7.53418
2019-03-09T06:20:16.429Z,7.514038
2019-03-09T06:21:25.937Z,7.53418
2019-03-09T06:22:35.453Z,7.53418
2019-03-09T06:23:44.971Z,7.53418
2019-03-09T06:24:54.477Z,7.514038
2019-03-09T06:26:04.003Z,7.53418
2019-03-09T06:27:13.518Z,7.53418
2019-03-09T06:28:23.027Z,7.53418
2019-03-09T06:29:32.548Z,7.584534
2019-03-09T06:30:42.067Z,7.614746
2019-03-09T06:31:51.583Z,7.695312
2019-03-09T06:33:01.100Z,7.755737
2019-03-09T06:34:10.602Z,7.765808
2019-03-09T06:35:20.114Z,7.876587
2019-03-09T06:36:29.637Z,7.896729
2019-03-09T06:37:39.182Z,7.937012
2019-03-09T06:38:48.664Z,7.967224
2019-03-09T06:39:58.169Z,7.947083
2019-03-09T06:41:07.694Z,7.947083
2019-03-09T06:42:17.211Z,7.997437
2019-03-09T06:43:26.720Z,8.078003
2019-03-09T06:44:36.233Z,8.128357
2019-03-09T06:45:46.762Z,8.148499
2019-03-09T06:46:56.276Z,8.178711
2019-03-09T06:48:05.785Z,8.188782
2019-03-09T06:49:15.291Z,8.229065
2019-03-09T06:50:24.801Z,8.259277
2019-03-09T06:51:35.317Z,8.259277
2019-03-09T06:52:44.827Z,8.269348
2019-03-09T06:53:54.330Z,8.309631
2019-03-09T06:55:03.837Z,8.339844
2019-03-09T06:56:13.367Z,8.370056
2019-03-09T06:57:22.875Z,8.380127
2019-03-09T06:58:32.391Z,8.440552
2019-03-09T06:59:41.895Z,8.460693
2019-03-09T07:00:51.404Z,8.511047
2019-03-09T07:02:00.984Z,8.511047
2019-03-09T07:03:10.499Z,8.531189
2019-03-09T07:04:20.016Z,8.581543
2019-03-09T07:05:29.523Z,8.641968
2019-03-09T07:06:39.048Z,8.662109
2019-03-09T07:07:48.558Z,8.67218
2019-03-09T07:08:58.069Z,8.662109
2019-03-09T07:10:07.589Z,8.641968
2019-03-09T07:11:17.107Z,8.631897
2019-03-09T07:12:26.622Z,8.662109
2019-03-09T07:13:36.139Z,8.692322
2019-03-09T07:14:46.627Z,8.732605
2019-03-09T07:15:56.134Z,8.732605
2019-03-09T07:17:05.679Z,8.742676
2019-03-09T07:18:15.204Z,8.742676
2019-03-09T07:19:24.717Z,8.732605
2019-03-09T07:20:34.222Z,8.732605
2019-03-09T07:21:43.743Z,8.732605
2019-03-09T07:22:53.232Z,8.692322
2019-03-09T07:24:02.732Z,8.611755
2019-03-09T07:25:12.241Z,8.561401
2019-03-09T07:26:21.783Z,8.490906
2019-03-09T07:27:31.269Z,8.380127
2019-03-09T07:28:40.785Z,8.279419
2019-03-09T07:29:50.286Z,8.198853
2019-03-09T07:30:59.796Z,8.098145
2019-03-09T07:32:09.324Z,7.967224
2019-03-09T07:33:18.831Z,7.796021
2019-03-09T07:34:28.340Z,7.574463
2019-03-09T07:35:37.845Z,7.473755
2019-03-09T07:36:47.373Z,7.423401
2019-03-09T07:37:56.878Z,7.503967
2019-03-09T07:39:06.385Z,7.483826
2019-03-09T07:40:15.888Z,7.383118
2019-03-09T07:41:25.397Z,7.332764
2019-03-09T07:42:34.936Z,7.393188
2019-03-09T07:43:44.442Z,7.352905
2019-03-09T07:44:53.969Z,7.332764
2019-03-09T07:46:03.515Z,7.312622
2019-03-09T07:47:13.030Z,7.352905
2019-03-09T07:48:22.553Z,7.383118
2019-03-09T07:49:32.055Z,7.362976
2019-03-09T07:50:41.560Z,7.383118
2019-03-09T07:51:51.076Z,7.362976
2019-03-09T07:53:00.596Z,7.312622
2019-03-09T07:54:10.102Z,7.312622
2019-03-09T07:55:19.702Z,7.29248
2019-03-09T07:56:29.267Z,7.332764
2019-03-09T07:57:38.750Z,7.352905
2019-03-09T07:58:48.268Z,7.403259
2019-03-09T07:59:57.781Z,7.403259
2019-03-09T08:01:07.293Z,7.362976
2019-03-09T08:02:16.822Z,7.383118
2019-03-09T08:03:26.331Z,7.423401
2019-03-09T08:04:35.848Z,7.473755
2019-03-09T08:05:45.359Z,7.584534
2019-03-09T08:06:54.889Z,7.604675
2019-03-09T08:08:04.404Z,7.614746
2019-03-09T08:09:13.920Z,7.634888
2019-03-09T08:10:23.429Z,7.604675
2019-03-09T08:11:32.946Z,7.574463
2019-03-09T08:12:42.470Z,7.54425
2019-03-09T08:13:51.990Z,7.53418
2019-03-09T08:15:01.500Z,7.54425
2019-03-09T08:16:11.016Z,7.574463
2019-03-09T08:17:20.544Z,7.604675
2019-03-09T08:18:30.060Z,7.655029
2019-03-09T08:19:39.568Z,7.715454
2019-03-09T08:20:49.104Z,7.745667
2019-03-09T08:21:58.649Z,7.816162
2019-03-09T08:23:08.163Z,7.826233
2019-03-09T08:24:17.713Z,7.876587
2019-03-09T08:25:27.218Z,7.947083
2019-03-09T08:26:36.730Z,7.997437
2019-03-09T08:27:46.265Z,8.007507
2019-03-09T08:28:55.811Z,8.027649
2019-03-09T08:30:05.295Z,8.057861
2019-03-09T08:31:14.860Z,8.057861
2019-03-09T08:32:24.325Z,8.088074
2019-03-09T08:33:33.855Z,8.148499
2019-03-09T08:34:43.344Z,8.148499
2019-03-09T08:35:52.869Z,8.178711
2019-03-09T08:37:02.365Z,8.188782
2019-03-09T08:38:11.896Z,8.229065
2019-03-09T08:39:21.406Z,8.269348
2019-03-09T08:40:30.908Z,8.329773
2019-03-09T08:41:40.427Z,8.370056
2019-03-09T08:42:49.962Z,8.42041
2019-03-09T08:43:59.471Z,8.490906
2019-03-09T08:45:09.040Z,8.551331
2019-03-09T08:46:18.634Z,8.641968
2019-03-09T08:47:28.221Z,8.712463
2019-03-09T08:48:37.856Z,8.712463
2019-03-09T08:49:47.374Z,8.782959
2019-03-09T08:50:56.905Z,8.813171
2019-03-09T08:52:06.424Z,8.823242
2019-03-09T08:53:15.935Z,8.873596
2019-03-09T08:54:25.503Z,8.843384
2019-03-09T08:55:34.967Z,8.843384
2019-03-09T08:56:44.522Z,8.883667
2019-03-09T08:57:54.059Z,8.913879
2019-03-09T08:59:03.610Z,8.944092
2019-03-09T09:00:13.076Z,9.034729
2019-03-09T09:01:22.589Z,9.095154
2019-03-09T09:02:32.103Z,9.064941
2019-03-09T09:03:41.628Z,9.17572
2019-03-09T09:04:51.135Z,9.216003
2019-03-09T09:06:00.651Z,9.226074
2019-03-09T09:07:10.165Z,9.205933
2019-03-09T09:08:19.689Z,9.205933
2019-03-09T09:09:29.202Z,9.286499
2019-03-09T09:10:38.700Z,9.336853
2019-03-09T09:11:48.208Z,9.397278
2019-03-09T09:12:57.727Z,9.397278
2019-03-09T09:14:07.272Z,9.387207
2019-03-09T09:15:16.766Z,9.387207
2019-03-09T09:16:26.270Z,9.367065
2019-03-09T09:17:35.781Z,9.42749
2019-03-09T09:18:45.447Z,9.437561
2019-03-09T09:19:54.927Z,9.387207
2019-03-09T09:21:04.439Z,9.457703
2019-03-09T09:22:13.978Z,9.407349
2019-03-09T09:23:23.487Z,9.477844
2019-03-09T09:24:32.985Z,9.467773
2019-03-09T09:25:42.483Z,9.54834
2019-03-09T09:26:52.060Z,9.649048
2019-03-09T09:28:01.578Z,9.558411
2019-03-09T09:29:11.097Z,9.638977
2019-03-09T09:30:20.615Z,9.618835
2019-03-09T09:31:30.146Z,9.608765
2019-03-09T09:32:39.648Z,9.608765
2019-03-09T09:33:49.178Z,9.689331
2019-03-09T09:34:59.679Z,9.860535
2019-03-09T09:36:09.183Z,9.860535
2019-03-09T09:37:18.685Z,9.870605
2019-03-09T09:38:28.247Z,9.951172
2019-03-09T09:39:37.759Z,10.102234
2019-03-09T09:40:47.267Z,10.152588
2019-03-09T09:41:56.799Z,10.122375
2019-03-09T09:43:06.332Z,10.122375
2019-03-09T09:44:15.836Z,10.132446
2019-03-09T09:45:25.376Z,10.092163
2019-03-09T09:46:34.897Z,10.162659
2019-03-09T09:47:44.464Z,10.233154
2019-03-09T09:48:53.985Z,10.263367
2019-03-09T09:50:03.501Z,10.384216
2019-03-09T09:51:13.060Z,10.484924
2019-03-09T09:52:22.632Z,10.565491
2019-03-09T09:53:32.196Z,10.55542
2019-03-09T09:54:41.729Z,10.4245
2019-03-09T09:55:51.270Z,10.404358
2019-03-09T09:57:00.805Z,10.384216
2019-03-09T09:58:10.422Z,10.404358
2019-03-09T09:59:19.953Z,10.384216
2019-03-09T10:00:29.505Z,10.374146
2019-03-09T10:01:39.026Z,10.374146
2019-03-09T10:02:48.570Z,10.354004
2019-03-09T10:03:58.348Z,10.414429
2019-03-09T10:05:07.865Z,10.444641
2019-03-09T10:06:17.408Z,10.585632
2019-03-09T10:07:27.842Z,10.736694
2019-03-09T10:08:37.366Z,10.897827
2019-03-09T10:09:46.905Z,10.887756
2019-03-09T10:10:56.433Z,10.716553
2019-03-09T10:12:05.989Z,11.018677
2019-03-09T10:13:15.462Z,11.260376
2019-03-09T10:14:24.997Z,11.44165
2019-03-09T10:15:34.545Z,11.522217
2019-03-09T10:16:44.125Z,11.663208
2019-03-09T10:17:53.633Z,11.93512
2019-03-09T10:19:03.161Z,12.247314
2019-03-09T10:20:12.694Z,12.247314
2019-03-09T10:21:22.215Z,12.44873
2019-03-09T10:22:31.725Z,12.358093
2019-03-09T10:23:41.245Z,12.176819
2019-03-09T10:24:50.755Z,11.904907
2019-03-09T10:26:00.261Z,11.784058
2019-03-09T10:27:09.782Z,11.834412
2019-03-09T10:28:19.291Z,11.834412
2019-03-09T10:29:28.914Z,12.086182
2019-03-09T10:30:38.444Z,11.985474
2019-03-09T10:31:47.963Z,11.914978
2019-03-09T10:32:57.505Z,11.904907
2019-03-09T10:34:07.036Z,11.844482
2019-03-09T10:35:16.551Z,11.834412
2019-03-09T10:36:26.065Z,11.864624
2019-03-09T10:37:35.590Z,11.804199
2019-03-09T10:38:45.119Z,11.753845
2019-03-09T10:39:54.629Z,11.69342
2019-03-09T10:41:04.138Z,11.552429
2019-03-09T10:42:13.646Z,11.512146
2019-03-09T10:43:23.154Z,11.451721
2019-03-09T10:44:32.679Z,11.502075
2019-03-09T10:45:42.207Z,11.703491
2019-03-09T10:46:51.729Z,11.93512
2019-03-09T10:48:01.238Z,11.985474
2019-03-09T10:49:10.765Z,11.663208
2019-03-09T10:50:20.313Z,11.270447
2019-03-09T10:51:29.816Z,11.270447
2019-03-09T10:52:39.331Z,11.411438
2019-03-09T10:53:48.861Z,11.471863
2019-03-09T10:54:58.386Z,11.411438
2019-03-09T10:56:07.894Z,11.471863
2019-03-09T10:57:17.408Z,11.542358
2019-03-09T10:58:26.925Z,11.43158
2019-03-09T10:59:36.444Z,11.220093
2019-03-09T11:00:45.959Z,11.371155
2019-03-09T11:01:55.462Z,11.44165
2019-03-09T11:03:04.969Z,11.602783
2019-03-09T11:04:14.487Z,11.502075
2019-03-09T11:05:24.981Z,11.542358
2019-03-09T11:06:34.490Z,11.481934
2019-03-09T11:07:44.006Z,11.44165
2019-03-09T11:08:53.504Z,11.622925
2019-03-09T11:10:03.081Z,11.572571
2019-03-09T11:11:12.596Z,11.572571
2019-03-09T11:12:22.106Z,11.471863
2019-03-09T11:13:31.618Z,11.411438
2019-03-09T11:14:41.151Z,11.290588
2019-03-09T11:15:50.657Z,11.149597
2019-03-09T11:17:00.175Z,11.149597
2019-03-09T11:18:09.681Z,11.351013
2019-03-09T11:19:19.195Z,11.330872
2019-03-09T11:20:28.740Z,11.401367
2019-03-09T11:21:38.280Z,11.361084
2019-03-09T11:22:47.775Z,11.471863
2019-03-09T11:23:57.290Z,11.411438
2019-03-09T11:25:06.817Z,11.451721
2019-03-09T11:26:16.348Z,11.471863
2019-03-09T11:27:25.858Z,11.371155
2019-03-09T11:28:35.363Z,11.411438
2019-03-09T11:29:44.903Z,11.481934
2019-03-09T11:30:54.410Z,11.592712
2019-03-09T11:32:03.948Z,11.622925
2019-03-09T11:33:13.457Z,11.552429
2019-03-09T11:34:22.975Z,11.552429
2019-03-09T11:35:32.932Z,11.552429
2019-03-09T11:36:42.037Z,11.733704
2019-03-09T11:37:51.563Z,11.834412
2019-03-09T11:39:01.074Z,11.884766
2019-03-09T11:40:10.604Z,12.015686
2019-03-09T11:41:20.112Z,12.06604
2019-03-09T11:42:29.626Z,12.086182
2019-03-09T11:43:39.143Z,11.844482
2019-03-09T11:44:48.670Z,11.69342
2019-03-09T11:45:58.184Z,11.874695
2019-03-09T11:47:07.711Z,12.015686
2019-03-09T11:48:17.222Z,12.015686
2019-03-09T11:49:26.741Z,12.025757
2019-03-09T11:50:36.263Z,12.116394
2019-03-09T11:51:45.774Z,12.035828
2019-03-09T11:52:55.279Z,11.985474
2019-03-09T11:54:04.790Z,12.126465
2019-03-09T11:55:14.312Z,12.31781
2019-03-09T11:56:23.822Z,12.428589
2019-03-09T11:57:33.359Z,12.388306
2019-03-09T11:58:42.862Z,12.277527
2019-03-09T11:59:52.405Z,12.428589
2019-03-09T12:01:01.924Z,12.428589
2019-03-09T12:02:11.439Z,12.428589
2019-03-09T12:03:20.960Z,12.237244
2019-03-09T12:04:30.465Z,12.217102
2019-03-09T12:05:40.977Z,12.207031
2019-03-09T12:06:50.507Z,12.096252
2019-03-09T12:07:59.997Z,11.965332
2019-03-09T12:09:09.528Z,11.884766
2019-03-09T12:10:19.051Z,11.804199
2019-03-09T12:11:28.560Z,11.69342
2019-03-09T12:12:38.070Z,11.784058
2019-03-09T12:13:47.583Z,11.834412
2019-03-09T12:14:57.102Z,11.81427
2019-03-09T12:16:06.603Z,11.723633
2019-03-09T12:17:16.109Z,11.753845
2019-03-09T12:18:25.630Z,11.723633
2019-03-09T12:19:36.128Z,11.723633
2019-03-09T12:20:45.685Z,11.703491
2019-03-09T12:21:55.196Z,11.773987
2019-03-09T12:23:04.708Z,11.753845
2019-03-09T12:24:17.564Z,11.904907
2019-03-09T12:25:23.742Z,12.116394
2019-03-09T12:26:33.252Z,12.146606
2019-03-09T12:27:42.765Z,12.096252
2019-03-09T12:28:52.296Z,12.217102
2019-03-09T12:30:03.732Z,12.055969
2019-03-09T12:31:11.338Z,11.965332
2019-03-09T12:32:20.860Z,11.864624
2019-03-09T12:33:30.383Z,11.965332
2019-03-09T12:34:39.927Z,12.146606
2019-03-09T12:35:49.443Z,12.207031
2019-03-09T12:36:58.960Z,12.207031
2019-03-09T12:38:08.486Z,12.418518
2019-03-09T12:39:18.012Z,12.489014
2019-03-09T12:40:27.530Z,12.640076
2019-03-09T12:41:37.052Z,12.952271
2019-03-09T12:42:46.567Z,12.56958
2019-03-09T12:43:56.096Z,12.609863
2019-03-09T12:45:05.593Z,12.851562
2019-03-09T12:46:15.122Z,12.760925
2019-03-09T12:47:24.629Z,12.529297
2019-03-09T12:48:34.144Z,13.002625
2019-03-09T12:49:43.666Z,13.486023
2019-03-09T12:50:53.215Z,12.861633
2019-03-09T12:52:02.765Z,12.952271
2019-03-09T12:53:14.016Z,12.44873
2019-03-09T12:54:21.778Z,12.529297
2019-03-09T12:55:31.304Z,12.31781
2019-03-09T12:56:40.817Z,12.499084
2019-03-09T12:57:50.327Z,12.468872
2019-03-09T12:58:59.837Z,12.458801
2019-03-09T13:00:09.346Z,12.56958
2019-03-09T13:01:18.947Z,12.911987
2019-03-09T13:02:28.449Z,13.113403
2019-03-09T13:03:37.978Z,13.224182
2019-03-09T13:04:47.469Z,13.123474
2019-03-09T13:05:57.063Z,13.083191
2019-03-09T13:07:06.572Z,13.093262
2019-03-09T13:08:16.073Z,13.304749
2019-03-09T13:09:25.614Z,13.314819
2019-03-09T13:10:35.165Z,13.204041
2019-03-09T13:11:44.673Z,13.052979
2019-03-09T13:12:54.183Z,13.183899
2019-03-09T13:14:03.692Z,13.002625
2019-03-09T13:15:13.193Z,13.093262
2019-03-09T13:16:22.727Z,13.133545
2019-03-09T13:17:32.239Z,13.093262
2019-03-09T13:18:41.745Z,13.123474
2019-03-09T13:19:51.275Z,13.204041
2019-03-09T13:21:00.798Z,13.486023
2019-03-09T13:22:10.309Z,13.707581
2019-03-09T13:23:19.825Z,14.029846
2019-03-09T13:24:29.336Z,13.768005
2019-03-09T13:25:38.915Z,13.375244
2019-03-09T13:26:48.386Z,14.150696
2019-03-09T13:27:57.897Z,13.677368
2019-03-09T13:29:07.412Z,13.516235
2019-03-09T13:30:16.927Z,13.536377
2019-03-09T13:31:26.524Z,13.334961